Terminal Aerodrome Forecast
Issued by NWS Twin Cities, MN

Home | Current Version | Previous Version | Graphics & Text | Print | Product List | Glossary On
Versions: 1 2 3 4 5 6 7 8 9 10 11 12 13 14 15 16 17 18 19 20 21 22 23 24 25
000
FTUS43 KMPX 011120
TAFEAU
TAF
KEAU 011120Z 0112/0212 VRB03KT 2SM BR SCT035
     FM011330 21005KT P6SM FEW030 BKN200
     FM020700 20002KT 2SM BR SCT010 BKN200=

USA.gov is the U.S. government's official web portal to all federal, state and local government web resources and services.